Maersk Essen — V7UQ8 — position and weather

sailwx.info

Track history (hours):
 
Tides and Currents Weather Stations Pressure Air Temp Water Temp Dewpoint Dewpoint Depression Visibility Wind Speed Wind Dir Waves Ship Positions

Maersk Essen

Last reported at 2015-May-02 08:33 UTC. Time now 2015-May-03 09:49 UTC.
Position N 24°09' E 119°12'.

Length 367 m; draft 13.2 m.

Type: Ship (hazmat cat A). MMSI: 538004007.

Date/timePositionNaut miles runAvg speedWind from/ knotsBaromVisibWave heightAir tempDewpointWater temp
2015-May-02 08:33N 24°09' E 119°12'27216.7
2015-May-01 16:17N 22°18' E 114°42'1216.3
2015-May-01 15:33N 22°22' E 114°30'4 0.3
2015-May-01 00:32N 22°18' E 114°30'1715.7
2015-Apr-30 23:28N 22°08' E 114°16'1212.4
2015-Apr-30 22:29N 22°16' E 114°06'4 4.0
2015-Apr-30 21:33N 22°20' E 114°07'0 0.0
2015-Apr-30 20:23N 22°20' E 114°07'0 0.0
2015-Apr-30 19:32N 22°20' E 114°07'0 0.0
2015-Apr-30 18:33N 22°20' E 114°07'0 0.0
2015-Apr-30 17:32N 22°20' E 114°07'0 0.0
2015-Apr-30 16:32N 22°20' E 114°07'0 0.0
2015-Apr-30 15:29N 22°20' E 114°07'0 0.0
2015-Apr-30 14:23N 22°20' E 114°07'0 0.0
2015-Apr-30 13:29N 22°20' E 114°07'0 0.0
2015-Apr-30 12:32N 22°20' E 114°07'0 0.0
2015-Apr-30 10:29N 22°20' E 114°07'1 0.6
2015-Apr-30 09:33N 22°19' E 114°07'16 7.9
2015-Apr-30 07:33N 22°09' E 114°19'9 2.1
2015-Apr-30 03:24N 22°02' E 114°26'  
2015-Apr-27 00:22N 01°17' E 104°17'1619.2
2015-Apr-26 23:33N 01°15' E 104°02'1413.7
2015-Apr-26 22:33N 01°13' E 103°48'4 4.0
2015-Apr-26 21:27N 01°16' E 103°46'0 0.0
2015-Apr-26 19:32N 01°16' E 103°46'0 0.0
2015-Apr-26 17:08N 01°16' E 103°46'0 0.0
2015-Apr-26 16:29N 01°16' E 103°46'0 0.0
2015-Apr-26 15:29N 01°16' E 103°46'0 0.0
2015-Apr-26 14:26N 01°16' E 103°46'0 0.0
2015-Apr-26 13:05N 01°16' E 103°46'0 0.0
2015-Apr-26 12:23N 01°16' E 103°46'0 0.0
2015-Apr-26 11:17N 01°16' E 103°46'0 0.0
2015-Apr-26 10:23N 01°16' E 103°46'0 0.0
2015-Apr-26 09:29N 01°16' E 103°46'0 0.0
2015-Apr-26 06:07N 01°16' E 103°46'0 0.0
2015-Apr-26 05:19N 01°16' E 103°46'0 0.0
2015-Apr-26 03:08N 01°16' E 103°46'0 0.0
2015-Apr-26 02:23N 01°16' E 103°46'1 0.9
2015-Apr-26 01:33N 01°16' E 103°46'0 0.1
2015-Apr-26 00:33N 01°16' E 103°46'4 3.6
2015-Apr-25 23:33N 01°14' E 103°43'11 0.4
2015-Apr-24 18:03N 01°15' E 103°32'5712.4
2015-Apr-24 13:27N 01°41' E 102°42'2220.8
2015-Apr-24 12:25N 01°51' E 102°22'  
Track history (hours):
 
Tides and Currents Weather Stations Pressure Air Temp Water Temp Dewpoint Dewpoint Depression Visibility Wind Speed Wind Dir Waves Ship Positions

Maersk Essen

Last reported at 2015-May-02 08:33 UTC. Time now 2015-May-03 09:49 UTC.
Position N 24°09' E 119°12'.

Length 367 m; draft 13.2 m.

Type: Ship (hazmat cat A). MMSI: 538004007.

Date/timePositionNaut miles runAvg speedWind from/ knotsBaromVisibWave heightAir tempDewpointWater temp
2015-May-02 08:33N 24°09' E 119°12'27216.7
2015-May-01 16:17N 22°18' E 114°42'1216.3
2015-May-01 15:33N 22°22' E 114°30'4 0.3
2015-May-01 00:32N 22°18' E 114°30'1715.7
2015-Apr-30 23:28N 22°08' E 114°16'1212.4
2015-Apr-30 22:29N 22°16' E 114°06'4 4.0
2015-Apr-30 21:33N 22°20' E 114°07'0 0.0
2015-Apr-30 20:23N 22°20' E 114°07'0 0.0
2015-Apr-30 19:32N 22°20' E 114°07'0 0.0
2015-Apr-30 18:33N 22°20' E 114°07'0 0.0
2015-Apr-30 17:32N 22°20' E 114°07'0 0.0
2015-Apr-30 16:32N 22°20' E 114°07'0 0.0
2015-Apr-30 15:29N 22°20' E 114°07'0 0.0
2015-Apr-30 14:23N 22°20' E 114°07'0 0.0
2015-Apr-30 13:29N 22°20' E 114°07'0 0.0
2015-Apr-30 12:32N 22°20' E 114°07'0 0.0
2015-Apr-30 10:29N 22°20' E 114°07'1 0.6
2015-Apr-30 09:33N 22°19' E 114°07'16 7.9
2015-Apr-30 07:33N 22°09' E 114°19'9 2.1
2015-Apr-30 03:24N 22°02' E 114°26'  
2015-Apr-27 00:22N 01°17' E 104°17'1619.2
2015-Apr-26 23:33N 01°15' E 104°02'1413.7
2015-Apr-26 22:33N 01°13' E 103°48'4 4.0
2015-Apr-26 21:27N 01°16' E 103°46'0 0.0
2015-Apr-26 19:32N 01°16' E 103°46'0 0.0
2015-Apr-26 17:08N 01°16' E 103°46'0 0.0
2015-Apr-26 16:29N 01°16' E 103°46'0 0.0
2015-Apr-26 15:29N 01°16' E 103°46'0 0.0
2015-Apr-26 14:26N 01°16' E 103°46'0 0.0
2015-Apr-26 13:05N 01°16' E 103°46'0 0.0
2015-Apr-26 12:23N 01°16' E 103°46'0 0.0
2015-Apr-26 11:17N 01°16' E 103°46'0 0.0
2015-Apr-26 10:23N 01°16' E 103°46'0 0.0
2015-Apr-26 09:29N 01°16' E 103°46'0 0.0
2015-Apr-26 06:07N 01°16' E 103°46'0 0.0
2015-Apr-26 05:19N 01°16' E 103°46'0 0.0
2015-Apr-26 03:08N 01°16' E 103°46'0 0.0
2015-Apr-26 02:23N 01°16' E 103°46'1 0.9
2015-Apr-26 01:33N 01°16' E 103°46'0 0.1
2015-Apr-26 00:33N 01°16' E 103°46'4 3.6
2015-Apr-25 23:33N 01°14' E 103°43'11 0.4
2015-Apr-24 18:03N 01°15' E 103°32'5712.4
2015-Apr-24 13:27N 01°41' E 102°42'2220.8
2015-Apr-24 12:25N 01°51' E 102°22'  

Dump ship's entire track history